createdAt,value
2022-09-02T00:08:24.285Z,959.39
2022-09-02T00:23:27.327Z,959.36
2022-09-02T00:38:29.296Z,959.3
2022-09-02T00:53:31.123Z,959.26
2022-09-02T01:08:32.952Z,959.33
2022-09-02T01:23:35.046Z,959.41
2022-09-02T01:38:36.928Z,959.39
2022-09-02T01:53:38.785Z,959.32
2022-09-02T02:08:40.616Z,959.42
2022-09-02T02:23:42.435Z,959.58
2022-09-02T02:38:44.284Z,959.86
2022-09-02T02:53:46.117Z,960.01
2022-09-02T03:08:47.930Z,960.33
2022-09-02T03:23:52.999Z,960.5
2022-09-02T03:38:54.816Z,960.73
2022-09-02T03:53:56.636Z,960.8
2022-09-02T04:08:58.470Z,961.05
2022-09-02T04:24:00.408Z,961.29
2022-09-02T04:39:02.227Z,961.35
2022-09-02T04:54:04.104Z,961.55
2022-09-02T05:09:05.973Z,961.58
2022-09-02T05:24:07.843Z,961.89
2022-09-02T05:39:09.749Z,962.03
2022-09-02T05:54:11.663Z,962.15
2022-09-02T06:09:13.508Z,962.42
2022-09-02T06:24:15.388Z,962.62
2022-09-02T06:39:17.260Z,962.72
2022-09-02T06:54:19.885Z,962.84
2022-09-02T07:09:21.848Z,963.05
2022-09-02T07:24:23.716Z,963.17
2022-09-02T07:39:25.599Z,963.26
2022-09-02T07:54:27.472Z,963.41
2022-09-02T08:09:29.330Z,963.51
2022-09-02T08:24:31.173Z,963.61
2022-09-02T08:39:33.012Z,963.67
2022-09-02T08:54:34.868Z,963.81
2022-09-02T09:09:36.685Z,963.86
2022-09-02T09:24:38.503Z,964.12
2022-09-02T09:39:40.359Z,964.3
2022-09-02T09:54:42.206Z,964.38
2022-09-02T10:09:44.045Z,964.55
2022-09-02T10:24:45.883Z,964.77
2022-09-02T10:39:47.693Z,964.87
2022-09-02T10:54:49.536Z,964.98
2022-09-02T11:09:51.352Z,965.02
2022-09-02T11:24:53.156Z,965.11
2022-09-02T11:40:06.423Z,965.14
2022-09-02T11:55:13.820Z,965.19
2022-09-02T12:10:16.236Z,965.27
2022-09-02T12:25:19.041Z,965.37
2022-09-02T12:40:20.934Z,965.49
2022-09-02T12:55:22.864Z,965.53
2022-09-02T13:10:24.745Z,965.61
2022-09-02T13:25:26.625Z,965.74
2022-09-02T13:40:28.592Z,965.84
2022-09-02T13:55:30.436Z,965.98
2022-09-02T14:10:32.256Z,966.07
2022-09-02T14:25:34.096Z,966.19
2022-09-02T14:40:35.945Z,966.21
2022-09-02T14:55:37.997Z,966.24
2022-09-02T15:10:39.828Z,966.21
2022-09-02T15:25:41.663Z,966.14
2022-09-02T15:40:43.486Z,966.09
2022-09-02T15:55:45.288Z,966.03
2022-09-02T16:10:47.139Z,965.93
2022-09-02T16:25:48.984Z,965.85
2022-09-02T16:40:50.805Z,965.64
2022-09-02T16:55:52.664Z,965.41
2022-09-02T17:10:54.505Z,965.38
2022-09-02T17:25:56.337Z,965.15
2022-09-02T17:40:58.187Z,964.99
2022-09-02T17:56:00.018Z,964.83
2022-09-02T18:11:01.864Z,964.6
2022-09-02T18:26:03.738Z,964.34
2022-09-02T18:41:05.574Z,963.89
2022-09-02T18:56:07.430Z,963.57
2022-09-02T19:11:09.255Z,963.32
2022-09-02T19:26:11.100Z,963.06
2022-09-02T19:41:13.030Z,962.94
2022-09-02T19:56:14.900Z,962.67
2022-09-02T20:11:18.840Z,962.33
2022-09-02T20:26:20.758Z,962.12
2022-09-02T20:41:22.687Z,961.82
2022-09-02T20:56:24.613Z,961.53
2022-09-02T21:11:26.530Z,961.26
2022-09-02T21:26:28.427Z,961.01
2022-09-02T21:41:32.143Z,960.79
2022-09-02T21:56:34.876Z,960.51
2022-09-02T22:11:36.782Z,960.23
2022-09-02T22:26:38.654Z,960.03
2022-09-02T22:41:40.553Z,959.93
2022-09-02T22:56:42.454Z,959.73
2022-09-02T23:11:44.342Z,959.64
2022-09-02T23:26:46.282Z,959.57
2022-09-02T23:41:48.202Z,959.48
2022-09-02T23:56:50.081Z,959.46
